Time;durP1;ratioP1;P1;durP2;ratioP2;P2;SDS_P1;SDS_P2;PMS_P1;PMS_P2;Temp;Humidity;BMP_temperature;BMP_pressure;BME280_temperature;BME280_humidity;BME280_pressure;Samples;Min_cycle;Max_cycle;Signal;HPM_P1;HPM_P2
2021/08/28 00:00:52;;;;;;;9.90;8.90;;;13.60;99.90;;;;;;5028575;28;20230;-52
2021/08/28 00:03:21;;;;;;;8.83;7.97;;;13.60;99.90;;;;;;5023759;28;20221;-50
2021/08/28 00:05:47;;;;;;;11.53;7.90;;;13.60;99.90;;;;;;5017700;28;20426;-49
2021/08/28 00:08:13;;;;;;;8.87;7.97;;;13.60;99.90;;;;;;5022379;28;20798;-53
2021/08/28 00:10:39;;;;;;;9.20;8.30;;;13.60;99.90;;;;;;5025618;28;20494;-50
2021/08/28 00:13:05;;;;;;;9.20;8.30;;;13.60;99.90;;;;;;5028119;28;20197;-52
2021/08/28 00:15:31;;;;;;;9.20;8.30;;;13.60;99.90;;;;;;5027965;28;20203;-52
2021/08/28 00:17:57;;;;;;;8.90;8.07;;;13.60;99.90;;;;;;5026716;28;20433;-53
2021/08/28 00:20:23;;;;;;;8.80;7.90;;;13.60;99.90;;;;;;5022371;28;20176;-50
2021/08/28 00:22:48;;;;;;;8.50;7.70;;;13.60;99.90;;;;;;5025370;28;20546;-51
2021/08/28 00:25:14;;;;;;;8.07;7.27;;;13.60;99.90;;;;;;5027887;28;20441;-52
2021/08/28 00:27:40;;;;;;;8.00;7.27;;;13.60;99.90;;;;;;5015043;28;20182;-53
2021/08/28 00:30:07;;;;;;;8.50;7.37;;;13.50;99.90;;;;;;5027477;28;20191;-52
2021/08/28 00:32:33;;;;;;;8.87;7.97;;;13.60;99.90;;;;;;5020662;28;20552;-51
2021/08/28 00:34:59;;;;;;;8.67;7.83;;;13.60;99.90;;;;;;5028012;28;20910;-52
2021/08/28 00:37:25;;;;;;;8.53;7.73;;;13.60;99.90;;;;;;5014184;28;20211;-48
2021/08/28 00:39:50;;;;;;;8.10;7.30;;;13.60;99.90;;;;;;5019970;28;20483;-49
2021/08/28 00:42:16;;;;;;;8.80;7.90;;;13.60;99.90;;;;;;5023279;28;20206;-51
2021/08/28 00:44:43;;;;;;;8.80;7.93;;;13.60;99.90;;;;;;5021810;28;20183;-52
2021/08/28 00:47:19;;;;;;;9.60;8.70;;;13.50;99.90;;;;;;5027783;28;20190;-51
2021/08/28 00:49:47;;;;;;;9.80;8.80;;;13.50;99.90;;;;;;5025980;28;20516;-51
2021/08/28 00:52:13;;;;;;;11.00;8.53;;;13.50;99.90;;;;;;5021210;28;20859;-53
2021/08/28 00:54:39;;;;;;;7.93;7.13;;;13.60;99.90;;;;;;5010820;28;20465;-48
2021/08/28 00:57:07;;;;;;;9.60;8.70;;;13.60;99.90;;;;;;5015535;28;20466;-53
2021/08/28 00:59:33;;;;;;;9.40;8.20;;;13.60;99.90;;;;;;5019846;28;20850;-53
2021/08/28 01:01:59;;;;;;;9.33;8.33;;;13.60;99.90;;;;;;5022513;28;20460;-55
2021/08/28 01:04:30;;;;;;;9.20;8.13;;;13.60;99.90;;;;;;5024478;28;20441;-52
2021/08/28 01:07:08;;;;;;;10.07;9.07;;;13.60;99.90;;;;;;5017420;28;20442;-53
2021/08/28 01:09:35;;;;;;;9.57;8.07;;;13.50;99.90;;;;;;5015315;28;20530;-55
2021/08/28 01:12:11;;;;;;;12.20;9.10;;;13.50;99.90;;;;;;5009033;28;20470;-52
2021/08/28 01:14:42;;;;;;;9.77;8.00;;;13.50;99.90;;;;;;5023268;28;20444;-50
2021/08/28 01:17:09;;;;;;;10.27;9.10;;;13.60;99.90;;;;;;5024362;28;20812;-51
2021/08/28 01:19:35;;;;;;;8.73;7.90;;;13.50;99.90;;;;;;5028791;28;20468;-52
2021/08/28 01:22:02;;;;;;;9.63;8.73;;;13.50;99.90;;;;;;5027595;28;20762;-49
2021/08/28 01:24:29;;;;;;;9.40;8.50;;;13.50;99.90;;;;;;5030779;28;20195;-52
2021/08/28 01:26:59;;;;;;;9.33;8.33;;;13.50;99.90;;;;;;5031855;28;20962;-54
2021/08/28 01:29:33;;;;;;;9.90;8.97;;;13.50;99.90;;;;;;5020045;28;20426;-53
2021/08/28 01:32:00;;;;;;;8.70;7.90;;;13.60;99.90;;;;;;5029749;28;20473;-55
2021/08/28 01:34:27;;;;;;;9.30;8.40;;;13.60;99.90;;;;;;5030665;28;20469;-54
2021/08/28 01:36:54;;;;;;;9.70;8.70;;;13.60;99.90;;;;;;5026021;28;20431;-54
2021/08/28 01:39:19;;;;;;;8.80;8.00;;;13.60;99.90;;;;;;5030707;28;20441;-54
2021/08/28 01:41:53;;;;;;;10.70;8.67;;;13.60;99.90;;;;;;5032052;28;20452;-51
2021/08/28 01:44:20;;;;;;;10.03;9.03;;;13.60;99.90;;;;;;5029473;28;20579;-54
2021/08/28 01:46:46;;;;;;;9.03;8.03;;;13.60;99.90;;;;;;5031158;28;20955;-55
2021/08/28 01:49:13;;;;;;;10.67;9.60;;;13.60;99.90;;;;;;5031805;28;20425;-51
2021/08/28 01:51:42;;;;;;;9.90;8.90;;;13.60;99.90;;;;;;5026979;28;20504;-52
2021/08/28 01:54:08;;;;;;;11.03;9.20;;;13.60;99.90;;;;;;5012003;28;20478;-51
2021/08/28 01:56:34;;;;;;;9.63;8.73;;;13.60;99.90;;;;;;5017813;28;20517;-51
2021/08/28 01:59:00;;;;;;;9.83;8.83;;;13.60;99.90;;;;;;5030234;28;20421;-51
2021/08/28 02:01:27;;;;;;;9.83;8.83;;;13.60;99.90;;;;;;5036282;28;20539;-54
2021/08/28 02:03:53;;;;;;;11.43;9.63;;;13.50;99.90;;;;;;5029868;28;20527;-53
2021/08/28 02:06:21;;;;;;;9.83;8.83;;;13.50;99.90;;;;;;5028702;28;20441;-49
2021/08/28 02:08:58;;;;;;;10.70;9.60;;;13.50;99.90;;;;;;5030964;28;20437;-52
2021/08/28 02:11:38;;;;;;;11.70;10.60;;;13.50;99.90;;;;;;5028238;28;20828;-52
2021/08/28 02:14:14;;;;;;;10.97;9.83;;;13.40;99.90;;;;;;5030299;28;20421;-51
2021/08/28 02:16:42;;;;;;;11.13;10.10;;;13.40;99.90;;;;;;5027225;28;20425;-53
2021/08/28 02:19:28;;;;;;;11.00;9.90;;;13.50;99.90;;;;;;5019504;28;20426;-53
2021/08/28 02:21:56;;;;;;;11.70;10.50;;;13.50;99.90;;;;;;5026272;28;20449;-52
2021/08/28 02:24:27;;;;;;;10.83;9.73;;;13.50;99.90;;;;;;5020186;28;20797;-52
2021/08/28 02:27:04;;;;;;;10.63;9.40;;;13.50;99.90;;;;;;5028922;28;20434;-54
2021/08/28 02:29:52;;;;;;;11.77;10.57;;;13.50;99.90;;;;;;5026890;28;20441;-55
2021/08/28 02:32:18;;;;;;;10.83;9.73;;;13.50;99.90;;;;;;5018044;28;20497;-51
2021/08/28 02:34:44;;;;;;;10.87;9.77;;;13.50;99.90;;;;;;5024557;28;20449;-54
2021/08/28 02:37:12;;;;;;;11.47;10.37;;;13.60;99.90;;;;;;5014012;28;20188;-54
2021/08/28 02:39:39;;;;;;;9.90;8.90;;;13.60;99.90;;;;;;5018450;28;21123;-52
2021/08/28 02:42:06;;;;;;;10.13;9.13;;;13.60;99.90;;;;;;5022547;28;20437;-50
2021/08/28 02:44:34;;;;;;;11.13;10.03;;;13.60;99.90;;;;;;5021784;28;20796;-54
2021/08/28 02:47:01;;;;;;;12.37;9.67;;;13.60;99.90;;;;;;5028907;28;20875;-51
2021/08/28 02:49:27;;;;;;;10.47;9.37;;;13.60;99.90;;;;;;5011017;28;20415;-52
2021/08/28 02:51:52;;;;;;;9.93;8.90;;;13.50;99.90;;;;;;5025182;28;20472;-53
2021/08/28 02:54:20;;;;;;;10.30;9.30;;;13.50;99.90;;;;;;5029112;28;20774;-48
2021/08/28 02:56:50;;;;;;;10.13;9.03;;;13.50;99.90;;;;;;5024364;28;20179;-54
2021/08/28 02:59:17;;;;;;;11.70;10.50;;;13.50;99.90;;;;;;5029266;28;20575;-52
2021/08/28 03:01:43;;;;;;;10.30;9.17;;;13.50;99.90;;;;;;5027043;28;20438;-54
2021/08/28 03:04:10;;;;;;;9.50;8.53;;;13.50;99.90;;;;;;5028574;28;20943;-53
2021/08/28 03:06:36;;;;;;;9.23;8.17;;;13.60;99.90;;;;;;5030284;28;20462;-50
2021/08/28 03:09:02;;;;;;;8.43;7.63;;;13.60;99.90;;;;;;5028479;28;20472;-53
2021/08/28 03:11:27;;;;;;;8.80;8.00;;;13.50;99.90;;;;;;5025685;28;20994;-55
2021/08/28 03:13:54;;;;;;;8.07;7.27;;;13.50;99.90;;;;;;5025823;28;20435;-54
2021/08/28 03:16:26;;;;;;;8.60;7.70;;;13.50;99.90;;;;;;5021576;28;20669;-52
2021/08/28 03:18:54;;;;;;;8.07;7.27;;;13.50;99.90;;;;;;5028860;28;20473;-53
2021/08/28 03:21:21;;;;;;;7.83;7.13;;;13.50;99.90;;;;;;5016284;28;20415;-55
2021/08/28 03:23:48;;;;;;;7.43;6.73;;;13.40;99.90;;;;;;5015731;28;20472;-56
2021/08/28 03:26:15;;;;;;;7.80;7.10;;;13.30;99.90;;;;;;5017434;28;20517;-55
2021/08/28 03:28:42;;;;;;;8.83;8.00;;;13.30;99.90;;;;;;5015499;28;20441;-54
2021/08/28 03:31:08;;;;;;;7.60;6.90;;;13.40;99.90;;;;;;5025544;28;20468;-55
2021/08/28 03:33:35;;;;;;;10.20;9.20;;;13.30;99.90;;;;;;5028457;28;20473;-55
2021/08/28 03:36:02;;;;;;;9.20;8.30;;;13.30;99.90;;;;;;5030102;28;20406;-54
2021/08/28 03:38:28;;;;;;;9.70;8.00;;;13.20;99.90;;;;;;5021789;28;20444;-52
2021/08/28 03:40:54;;;;;;;9.57;8.60;;;13.20;99.90;;;;;;5029421;28;21051;-54
2021/08/28 03:43:20;;;;;;;9.53;8.57;;;13.10;99.90;;;;;;5020365;28;20187;-53
2021/08/28 03:45:48;;;;;;;10.27;9.27;;;13.10;99.90;;;;;;5010984;28;20422;-54
2021/08/28 03:48:16;;;;;;;10.40;9.30;;;13.20;99.90;;;;;;5026795;28;20201;-53
2021/08/28 03:50:42;;;;;;;11.97;9.10;;;13.20;99.90;;;;;;5020500;28;20517;-54
2021/08/28 03:53:07;;;;;;;9.73;8.73;;;13.20;99.90;;;;;;5012829;28;20557;-56
2021/08/28 03:55:33;;;;;;;10.30;9.20;;;13.20;99.90;;;;;;5020655;28;20181;-49
2021/08/28 03:57:58;;;;;;;10.23;9.23;;;13.30;99.90;;;;;;5030070;28;20195;-54
2021/08/28 04:00:24;;;;;;;10.53;9.47;;;13.30;99.90;;;;;;5028295;28;20306;-50
2021/08/28 04:02:51;;;;;;;10.63;9.63;;;13.30;99.90;;;;;;5014816;28;20211;-53
2021/08/28 04:05:16;;;;;;;9.47;8.57;;;13.30;99.90;;;;;;5016917;28;20901;-51
2021/08/28 04:07:42;;;;;;;10.77;9.77;;;13.30;99.90;;;;;;5030000;28;20215;-53
2021/08/28 04:10:08;;;;;;;10.13;9.23;;;13.40;99.90;;;;;;5022491;28;20218;-52
2021/08/28 04:12:34;;;;;;;9.73;8.73;;;13.40;99.90;;;;;;5028230;28;21018;-54
2021/08/28 04:15:00;;;;;;;9.77;8.87;;;13.40;99.90;;;;;;5030011;28;20179;-52
2021/08/28 04:17:25;;;;;;;10.20;9.20;;;13.40;99.90;;;;;;5029091;28;20258;-53
2021/08/28 04:19:51;;;;;;;10.50;9.50;;;13.40;99.90;;;;;;5029277;28;20626;-55
2021/08/28 04:22:16;;;;;;;10.17;9.17;;;13.40;99.90;;;;;;5029524;28;20218;-51
2021/08/28 04:24:42;;;;;;;15.93;10.03;;;13.40;99.90;;;;;;5016922;28;20732;-54
2021/08/28 04:27:07;;;;;;;10.03;9.03;;;13.40;99.90;;;;;;5022006;28;20341;-52
2021/08/28 04:29:33;;;;;;;9.73;8.73;;;13.40;99.90;;;;;;5028126;28;20893;-51
2021/08/28 04:31:59;;;;;;;14.43;9.20;;;13.40;99.90;;;;;;5029095;28;20290;-54
2021/08/28 04:34:24;;;;;;;12.90;9.70;;;13.40;99.90;;;;;;5021123;28;20274;-51
2021/08/28 04:36:50;;;;;;;10.30;9.30;;;13.40;99.90;;;;;;5010738;28;20164;-54
2021/08/28 04:39:15;;;;;;;11.23;9.80;;;13.40;99.90;;;;;;5021166;28;20294;-52
2021/08/28 04:41:41;;;;;;;10.73;9.63;;;13.40;99.90;;;;;;5028270;28;20193;-55
2021/08/28 04:44:06;;;;;;;11.97;10.77;;;13.40;99.90;;;;;;5029196;28;20264;-52
2021/08/28 04:46:32;;;;;;;11.47;10.00;;;13.40;99.90;;;;;;5030790;28;20210;-52
2021/08/28 04:48:58;;;;;;;11.30;10.20;;;13.40;99.90;;;;;;5028297;28;20190;-52
2021/08/28 04:51:23;;;;;;;11.50;10.13;;;13.50;99.90;;;;;;5030265;28;20929;-56
2021/08/28 04:53:49;;;;;;;11.03;9.80;;;13.50;99.90;;;;;;5043659;28;20275;-56
2021/08/28 04:56:14;;;;;;;12.03;10.80;;;13.50;99.90;;;;;;5031457;28;20305;-54
2021/08/28 04:58:40;;;;;;;11.43;10.03;;;13.50;99.90;;;;;;5029662;28;20708;-54
2021/08/28 05:01:05;;;;;;;12.73;11.10;;;13.50;99.90;;;;;;5034331;28;20305;-52
2021/08/28 05:03:31;;;;;;;11.80;10.20;;;13.50;99.90;;;;;;5030502;28;20183;-50
2021/08/28 05:05:56;;;;;;;11.33;10.23;;;13.50;99.90;;;;;;5031099;28;20179;-52
2021/08/28 05:08:22;;;;;;;12.37;11.07;;;13.60;99.90;;;;;;5031195;28;20198;-50
2021/08/28 05:10:48;;;;;;;12.70;11.30;;;13.60;99.90;;;;;;5032136;28;20198;-55
2021/08/28 05:13:13;;;;;;;12.07;10.87;;;13.60;99.90;;;;;;5026958;28;20807;-54
2021/08/28 05:15:39;;;;;;;12.70;11.37;;;13.60;99.90;;;;;;5030481;28;20428;-52
2021/08/28 05:18:05;;;;;;;12.30;11.10;;;13.60;99.90;;;;;;5025374;28;20231;-52
2021/08/28 05:20:31;;;;;;;14.27;11.93;;;13.60;99.90;;;;;;5023811;28;20214;-55
2021/08/28 05:22:56;;;;;;;12.73;11.40;;;13.60;99.90;;;;;;5027622;28;20561;-51
2021/08/28 05:25:22;;;;;;;13.03;11.60;;;13.70;99.90;;;;;;5018379;28;20430;-54
2021/08/28 05:27:47;;;;;;;13.40;12.00;;;13.70;99.90;;;;;;5033175;28;20281;-52
2021/08/28 05:30:13;;;;;;;14.10;12.70;;;13.70;99.90;;;;;;5028020;28;20585;-51
2021/08/28 05:32:40;;;;;;;12.93;11.63;;;13.80;99.90;;;;;;5029115;28;20229;-53
2021/08/28 05:35:06;;;;;;;13.63;12.03;;;13.70;99.90;;;;;;5031929;28;20510;-50
2021/08/28 05:37:32;;;;;;;14.10;12.60;;;13.80;99.90;;;;;;5030593;28;20987;-54
2021/08/28 05:39:57;;;;;;;15.00;13.40;;;13.80;99.90;;;;;;5031266;28;20492;-52
2021/08/28 05:42:23;;;;;;;13.83;11.60;;;13.80;99.90;;;;;;5031291;28;20627;-54
2021/08/28 05:44:49;;;;;;;13.23;11.70;;;13.90;99.90;;;;;;5029123;28;20193;-55
2021/08/28 05:47:15;;;;;;;13.80;12.33;;;14.00;99.90;;;;;;5028621;28;20278;-55
2021/08/28 05:49:40;;;;;;;14.30;12.90;;;14.10;99.90;;;;;;5011722;28;20505;-52
2021/08/28 05:52:06;;;;;;;12.83;11.53;;;14.20;99.90;;;;;;5028396;28;20646;-52
2021/08/28 05:54:32;;;;;;;13.07;11.70;;;14.20;99.90;;;;;;5030604;28;20229;-53
2021/08/28 05:56:57;;;;;;;12.80;11.50;;;14.30;99.90;;;;;;5031505;28;20429;-55
2021/08/28 05:59:23;;;;;;;13.03;11.70;;;14.30;99.90;;;;;;5021645;28;20233;-52
2021/08/28 06:01:49;;;;;;;14.07;12.67;;;14.30;99.90;;;;;;5031201;28;20278;-54
2021/08/28 06:04:14;;;;;;;12.63;11.33;;;14.30;99.90;;;;;;5028047;28;20202;-52
2021/08/28 06:06:40;;;;;;;13.20;11.80;;;14.30;99.90;;;;;;5016161;28;20664;-56
2021/08/28 06:09:05;;;;;;;13.10;11.20;;;14.30;99.90;;;;;;5020883;28;20611;-53
2021/08/28 06:11:31;;;;;;;14.17;12.70;;;14.30;99.90;;;;;;5022268;28;20219;-52
2021/08/28 06:13:56;;;;;;;13.27;11.87;;;14.30;99.90;;;;;;5021248;28;20197;-54
2021/08/28 06:16:22;;;;;;;13.20;11.80;;;14.40;99.90;;;;;;5021129;28;20201;-56
2021/08/28 06:18:48;;;;;;;13.63;12.03;;;14.40;99.90;;;;;;5020314;28;20193;-50
2021/08/28 06:21:13;;;;;;;13.63;12.23;;;14.50;99.90;;;;;;5025026;28;20186;-54
2021/08/28 06:23:39;;;;;;;13.87;12.57;;;14.80;99.90;;;;;;5020929;28;20186;-54
2021/08/28 06:26:04;;;;;;;13.60;12.20;;;14.80;99.90;;;;;;5029025;28;20186;-56
2021/08/28 06:28:30;;;;;;;13.40;12.00;;;14.90;99.90;;;;;;5028897;28;20712;-55
2021/08/28 06:30:56;;;;;;;13.00;11.27;;;14.90;99.90;;;;;;5030085;28;20202;-54
2021/08/28 06:33:21;;;;;;;11.77;10.67;;;15.00;99.90;;;;;;5027352;28;20539;-54
2021/08/28 06:35:47;;;;;;;12.97;11.57;;;15.10;99.90;;;;;;5028553;28;20425;-54
2021/08/28 06:38:12;;;;;;;11.63;10.43;;;15.10;99.90;;;;;;5020200;28;20185;-55
2021/08/28 06:40:38;;;;;;;11.73;9.77;;;15.10;99.90;;;;;;5029694;28;20182;-51
2021/08/28 06:43:03;;;;;;;12.50;10.60;;;15.10;99.90;;;;;;5028555;28;20195;-56
2021/08/28 06:45:29;;;;;;;10.93;9.77;;;15.10;99.90;;;;;;5016999;28;20298;-53
2021/08/28 06:47:55;;;;;;;10.87;9.77;;;15.00;99.90;;;;;;5021352;28;20573;-53
2021/08/28 06:50:20;;;;;;;9.97;8.97;;;15.10;99.90;;;;;;5018980;28;20203;-54
2021/08/28 06:52:46;;;;;;;9.70;8.70;;;15.10;99.90;;;;;;5020642;28;20214;-54
2021/08/28 06:55:11;;;;;;;9.50;8.60;;;15.10;99.90;;;;;;5027862;28;20229;-54
2021/08/28 06:57:37;;;;;;;10.37;9.37;;;15.30;99.90;;;;;;5016971;28;20262;-52
2021/08/28 07:00:10;;;;;;;10.13;9.10;;;15.10;99.90;;;;;;5012362;28;20688;-54
2021/08/28 07:03:04;;;;;;;10.43;9.10;;;15.10;99.90;;;;;;5029888;28;20531;-52
2021/08/28 07:05:50;;;;;;;10.43;9.33;;;15.10;99.90;;;;;;5023246;28;20414;-53
2021/08/28 07:08:15;;;;;;;10.03;9.03;;;15.10;99.90;;;;;;5015984;28;20417;-53
2021/08/28 07:10:43;;;;;;;9.33;8.43;;;15.00;99.90;;;;;;5030074;28;20187;-51
2021/08/28 07:13:08;;;;;;;10.47;8.93;;;15.00;99.90;;;;;;5019035;28;20673;-54
2021/08/28 07:15:34;;;;;;;10.70;9.60;;;15.00;99.90;;;;;;5028634;28;20432;-55
2021/08/28 07:17:59;;;;;;;9.43;8.63;;;15.10;99.90;;;;;;5022755;28;20179;-51
2021/08/28 07:20:25;;;;;;;11.57;10.13;;;15.10;99.90;;;;;;5014777;28;20178;-49
2021/08/28 07:22:50;;;;;;;10.70;9.60;;;15.20;99.90;;;;;;5028799;28;20187;-53
2021/08/28 07:25:16;;;;;;;9.90;8.90;;;15.30;99.90;;;;;;5028596;28;20198;-55
2021/08/28 07:27:42;;;;;;;9.60;8.70;;;15.30;99.90;;;;;;5019676;28;20192;-53
2021/08/28 07:30:08;;;;;;;10.53;9.47;;;15.50;99.90;;;;;;5024337;28;20193;-53
2021/08/28 07:32:33;;;;;;;9.30;8.37;;;15.60;99.90;;;;;;5022068;28;20195;-51
2021/08/28 07:34:59;;;;;;;8.43;7.63;;;15.80;99.90;;;;;;5011764;28;20431;-53
2021/08/28 07:37:24;;;;;;;9.07;8.20;;;16.00;99.90;;;;;;5012228;28;20191;-53
2021/08/28 07:39:50;;;;;;;8.30;7.60;;;16.10;99.90;;;;;;5019158;28;20172;-55
2021/08/28 07:42:16;;;;;;;9.37;7.47;;;16.10;99.90;;;;;;5009847;28;20242;-51
2021/08/28 07:44:42;;;;;;;8.27;7.47;;;16.20;99.90;;;;;;5029540;28;20178;-52
2021/08/28 07:47:08;;;;;;;8.07;7.37;;;16.20;99.90;;;;;;5028697;28;20935;-55
2021/08/28 07:49:34;;;;;;;7.90;7.10;;;16.20;99.90;;;;;;5025893;28;20182;-50
2021/08/28 07:51:59;;;;;;;8.00;7.30;;;16.20;99.90;;;;;;5024823;28;20946;-55
2021/08/28 07:54:25;;;;;;;10.37;8.40;;;16.10;99.90;;;;;;5029156;28;20202;-55
2021/08/28 07:56:51;;;;;;;9.33;8.33;;;16.20;99.90;;;;;;5020946;28;20276;-52
2021/08/28 07:59:16;;;;;;;8.67;7.77;;;16.30;99.90;;;;;;5020071;28;20558;-53
2021/08/28 08:01:42;;;;;;;8.93;8.13;;;16.40;99.90;;;;;;5022137;28;20199;-49
2021/08/28 08:04:07;;;;;;;9.60;8.03;;;16.50;99.90;;;;;;5029467;28;20191;-54
2021/08/28 08:06:33;;;;;;;8.33;7.63;;;16.70;99.90;;;;;;5028728;28;20858;-54
2021/08/28 08:08:58;;;;;;;9.50;7.40;;;16.70;99.90;;;;;;5028674;28;20186;-55
2021/08/28 08:11:24;;;;;;;7.83;7.23;;;16.70;99.90;;;;;;5026545;28;20286;-53
2021/08/28 08:13:49;;;;;;;8.70;7.77;;;16.80;99.90;;;;;;5029054;28;20233;-51
2021/08/28 08:16:15;;;;;;;7.70;7.00;;;17.00;99.90;;;;;;5015146;28;20286;-56
2021/08/28 08:18:41;;;;;;;7.40;6.70;;;17.10;99.90;;;;;;5030634;28;20197;-53
2021/08/28 08:21:06;;;;;;;7.10;6.40;;;17.20;99.90;;;;;;5028300;28;20194;-56
2021/08/28 08:23:32;;;;;;;6.37;5.87;;;17.30;99.90;;;;;;5028655;28;20252;-54
2021/08/28 08:25:58;;;;;;;6.30;5.80;;;17.30;99.90;;;;;;5027516;28;20650;-53
2021/08/28 08:28:23;;;;;;;6.47;5.97;;;17.30;99.90;;;;;;5028891;28;20260;-55
2021/08/28 08:30:49;;;;;;;6.30;5.80;;;17.40;99.90;;;;;;5019575;28;20189;-52
2021/08/28 08:33:15;;;;;;;6.60;6.10;;;17.40;99.90;;;;;;5032136;28;20666;-53
2021/08/28 08:35:40;;;;;;;6.53;6.03;;;17.60;99.90;;;;;;5021095;28;20541;-54
2021/08/28 08:38:06;;;;;;;5.63;5.13;;;17.80;99.90;;;;;;5015899;28;20190;-52
2021/08/28 08:40:32;;;;;;;6.67;6.07;;;18.10;99.90;;;;;;5022941;28;20176;-51
2021/08/28 08:43:03;;;;;;;6.20;5.70;;;18.30;99.90;;;;;;5024344;28;20926;-52
2021/08/28 08:45:29;;;;;;;5.33;4.93;;;18.80;99.90;;;;;;5019615;28;20422;-52
2021/08/28 08:47:55;;;;;;;6.47;5.97;;;19.00;99.90;;;;;;5029494;28;20881;-53
2021/08/28 08:50:22;;;;;;;6.03;5.53;;;19.00;99.90;;;;;;5028143;28;20638;-54
2021/08/28 08:52:52;;;;;;;6.90;6.30;;;19.20;99.90;;;;;;5028985;28;20462;-51
2021/08/28 08:55:18;;;;;;;7.50;6.57;;;19.20;99.90;;;;;;5021464;28;20434;-52
2021/08/28 08:57:43;;;;;;;7.80;7.10;;;19.00;99.90;;;;;;5031081;28;20464;-51
2021/08/28 09:00:10;;;;;;;7.47;6.70;;;18.70;99.90;;;;;;5027983;28;20477;-49
2021/08/28 09:02:36;;;;;;;8.17;7.37;;;18.30;99.90;;;;;;5027996;28;20194;-56
2021/08/28 09:05:04;;;;;;;8.10;7.40;;;18.20;99.90;;;;;;5030490;28;20912;-49
2021/08/28 09:07:31;;;;;;;10.57;9.00;;;17.90;99.90;;;;;;5031779;28;20535;-53
2021/08/28 09:09:56;;;;;;;8.77;7.97;;;17.70;99.90;;;;;;5028840;28;20469;-52
2021/08/28 09:12:22;;;;;;;9.57;8.77;;;17.40;99.90;;;;;;5022555;28;20560;-52
2021/08/28 09:14:57;;;;;;;9.47;8.57;;;17.10;99.90;;;;;;5005888;28;20291;-54
2021/08/28 09:17:23;;;;;;;10.50;9.40;;;16.90;99.90;;;;;;5023384;28;20179;-54
2021/08/28 09:19:50;;;;;;;9.50;8.70;;;16.70;99.90;;;;;;5023271;28;20789;-55
2021/08/28 09:22:27;;;;;;;9.20;8.40;;;16.50;99.90;;;;;;5017598;28;20183;-57
2021/08/28 09:25:03;;;;;;;8.90;8.10;;;16.30;99.90;;;;;;5017554;28;20960;-54
2021/08/28 09:27:39;;;;;;;7.90;7.20;;;16.10;99.90;;;;;;5018499;28;20935;-50
2021/08/28 09:30:27;;;;;;;8.67;7.87;;;15.90;99.90;;;;;;5021259;28;20443;-50
2021/08/28 09:33:03;;;;;;;9.27;8.37;;;15.70;99.90;;;;;;5021490;28;20457;-55
2021/08/28 09:35:50;;;;;;;8.70;7.90;;;15.60;99.90;;;;;;5021574;28;20444;-52
2021/08/28 09:38:22;;;;;;;8.83;8.00;;;15.50;99.90;;;;;;5020982;28;20445;-54
2021/08/28 09:40:56;;;;;;;10.83;9.37;;;15.50;99.90;;;;;;5020721;28;20939;-55
2021/08/28 09:43:22;;;;;;;9.03;8.13;;;15.40;99.90;;;;;;5019999;28;20436;-50
2021/08/28 09:45:50;;;;;;;10.27;9.27;;;15.40;99.90;;;;;;5021844;28;20471;-51
2021/08/28 09:48:18;;;;;;;11.20;10.03;;;15.40;99.90;;;;;;5021933;28;20934;-52
2021/08/28 09:50:49;;;;;;;10.70;9.70;;;15.60;99.90;;;;;;5019618;28;20457;-49
2021/08/28 09:53:21;;;;;;;10.60;9.60;;;15.60;99.90;;;;;;5020657;28;20493;-51
2021/08/28 09:55:54;;;;;;;9.80;8.90;;;15.80;99.90;;;;;;5021158;28;20442;-55
2021/08/28 09:58:23;;;;;;;10.23;9.33;;;16.00;99.90;;;;;;5019254;28;20455;-53
2021/08/28 10:00:49;;;;;;;10.13;9.13;;;16.20;99.90;;;;;;5022065;28;20512;-51
2021/08/28 10:03:15;;;;;;;8.97;8.17;;;16.60;99.90;;;;;;5019187;28;20446;-54
2021/08/28 10:05:45;;;;;;;8.73;7.30;;;17.00;99.90;;;;;;5023376;28;20180;-54
2021/08/28 10:08:11;;;;;;;7.17;6.57;;;17.30;99.90;;;;;;5021143;28;20189;-54
2021/08/28 10:10:39;;;;;;;6.83;6.23;;;17.40;99.90;;;;;;5018922;28;20476;-56
2021/08/28 10:13:07;;;;;;;6.20;5.60;;;17.60;99.90;;;;;;5022926;28;20467;-56
2021/08/28 10:15:34;;;;;;;6.53;5.97;;;17.70;99.90;;;;;;5027685;28;20429;-56
2021/08/28 10:18:02;;;;;;;6.20;5.70;;;17.80;99.90;;;;;;5015189;28;20503;-56
2021/08/28 10:20:29;;;;;;;5.90;5.43;;;18.10;99.90;;;;;;5026277;28;20631;-57
2021/08/28 10:22:57;;;;;;;5.67;5.17;;;18.70;99.90;;;;;;5027658;28;20475;-56
2021/08/28 10:25:25;;;;;;;5.53;5.07;;;20.00;99.90;;;;;;5023362;28;20422;-56
2021/08/28 10:27:52;;;;;;;4.27;3.97;;;21.00;99.90;;;;;;5022265;28;21313;-57
2021/08/28 10:30:21;;;;;;;4.50;4.20;;;21.10;99.90;;;;;;5018617;28;20437;-55
2021/08/28 10:32:48;;;;;;;4.70;4.30;;;20.70;99.90;;;;;;5020550;28;20469;-56
2021/08/28 10:35:15;;;;;;;4.87;4.47;;;20.00;99.90;;;;;;5020441;28;20433;-57
2021/08/28 10:37:41;;;;;;;4.83;4.53;;;19.60;99.90;;;;;;5018386;28;20429;-55
2021/08/28 10:40:12;;;;;;;4.67;4.27;;;19.30;99.90;;;;;;5023913;28;20430;-55
2021/08/28 10:42:40;;;;;;;5.47;5.07;;;19.00;99.90;;;;;;5022257;28;20491;-57
2021/08/28 10:45:07;;;;;;;5.00;4.60;;;18.70;99.90;;;;;;5026792;28;20429;-57
2021/08/28 10:47:33;;;;;;;4.93;4.53;;;18.40;99.90;;;;;;5024903;28;20473;-56
2021/08/28 10:50:06;;;;;;;4.30;4.00;;;18.30;99.90;;;;;;5025338;28;20481;-56
2021/08/28 10:52:35;;;;;;;4.90;4.50;;;18.20;99.90;;;;;;5026389;28;20208;-54
2021/08/28 10:55:12;;;;;;;5.10;4.70;;;18.10;99.90;;;;;;5027419;28;20451;-55
2021/08/28 10:57:39;;;;;;;4.57;4.17;;;18.10;99.90;;;;;;5024021;28;20440;-56
2021/08/28 11:00:13;;;;;;;4.80;4.40;;;18.10;99.90;;;;;;5025275;28;20501;-57
2021/08/28 11:02:55;;;;;;;4.70;4.30;;;18.10;99.90;;;;;;5023385;28;20443;-55
2021/08/28 11:05:31;;;;;;;5.03;4.63;;;18.00;99.90;;;;;;5026665;28;20425;-53
2021/08/28 11:08:17;;;;;;;4.33;4.03;;;17.90;99.90;;;;;;5024966;28;20821;-54
2021/08/28 11:10:43;;;;;;;5.30;4.90;;;17.80;99.90;;;;;;5025916;28;20444;-57
2021/08/28 11:13:09;;;;;;;5.23;4.83;;;17.70;99.90;;;;;;5024210;28;20459;-55
2021/08/28 11:15:34;;;;;;;5.97;5.47;;;17.60;99.90;;;;;;5025100;28;20476;-57
2021/08/28 11:18:03;;;;;;;5.00;4.60;;;17.60;99.90;;;;;;5025236;28;20218;-56
2021/08/28 11:20:51;;;;;;;5.70;5.20;;;17.60;99.90;;;;;;5026250;28;20240;-58
2021/08/28 11:23:21;;;;;;;5.10;4.70;;;17.60;99.90;;;;;;5023981;28;20646;-56
2021/08/28 11:25:57;;;;;;;4.93;4.53;;;17.80;99.90;;;;;;5027182;28;20814;-56
2021/08/28 11:28:34;;;;;;;5.77;5.27;;;17.90;99.90;;;;;;5023805;28;20452;-56
2021/08/28 11:31:00;;;;;;;6.07;5.50;;;18.10;99.90;;;;;;5024948;28;20453;-56
2021/08/28 11:33:29;;;;;;;5.73;5.13;;;18.30;99.90;;;;;;5024021;28;20483;-56
2021/08/28 11:36:01;;;;;;;6.37;5.87;;;18.50;99.90;;;;;;5025536;28;20480;-55
2021/08/28 11:38:48;;;;;;;6.80;6.20;;;18.80;99.90;;;;;;5025501;28;20441;-57
2021/08/28 11:41:22;;;;;;;7.30;6.70;;;19.20;99.90;;;;;;5024495;28;20452;-57
2021/08/28 11:43:49;;;;;;;6.50;6.00;;;19.40;99.90;;;;;;5025941;28;21231;-57
2021/08/28 11:46:17;;;;;;;7.27;6.67;;;19.50;99.90;;;;;;5027004;28;20716;-56
2021/08/28 11:48:45;;;;;;;7.40;6.80;;;19.50;99.90;;;;;;5024235;28;20794;-57
2021/08/28 11:51:17;;;;;;;8.57;7.87;;;19.40;99.90;;;;;;5025893;28;20528;-53
2021/08/28 11:53:45;;;;;;;8.83;8.13;;;19.30;99.90;;;;;;5020942;28;20449;-55
2021/08/28 11:56:17;;;;;;;7.60;7.00;;;19.30;99.90;;;;;;5024976;28;20429;-56
2021/08/28 11:58:55;;;;;;;8.67;7.77;;;19.30;99.90;;;;;;5023705;28;20448;-57
2021/08/28 12:01:29;;;;;;;8.53;7.73;;;19.20;99.90;;;;;;5023959;28;20550;-59
2021/08/28 12:03:57;;;;;;;7.53;6.73;;;19.10;99.90;;;;;;5025488;28;20800;-57
2021/08/28 12:06:25;;;;;;;8.17;7.47;;;19.00;99.90;;;;;;5023276;28;20477;-57
2021/08/28 12:08:51;;;;;;;7.23;6.60;;;19.00;99.90;;;;;;5023205;28;20449;-55
2021/08/28 12:11:17;;;;;;;8.10;7.40;;;18.70;99.90;;;;;;5027771;28;20438;-55
2021/08/28 12:13:51;;;;;;;7.60;6.90;;;18.70;99.90;;;;;;5025936;28;20477;-55
2021/08/28 12:16:29;;;;;;;8.20;7.50;;;18.70;99.90;;;;;;5028987;28;20175;-55
2021/08/28 12:19:03;;;;;;;7.83;7.10;;;18.50;99.90;;;;;;5020258;28;20539;-55
2021/08/28 12:21:31;;;;;;;8.03;7.30;;;18.50;99.90;;;;;;5022870;28;20456;-55
2021/08/28 12:24:10;;;;;;;7.93;7.23;;;18.50;99.90;;;;;;5023658;28;20456;-53
2021/08/28 12:26:35;;;;;;;7.93;7.23;;;18.50;99.90;;;;;;5021365;28;20528;-54
2021/08/28 12:29:03;;;;;;;5.90;5.10;;;18.60;99.90;;;;;;5022780;28;20532;-51
2021/08/28 12:31:31;;;;;;;4.33;4.00;;;18.40;99.90;;;;;;5026524;28;20208;-56
2021/08/28 12:34:00;;;;;;;3.60;3.30;;;18.10;99.90;;;;;;5013690;28;20431;-53
2021/08/28 12:36:28;;;;;;;3.90;3.60;;;17.90;99.90;;;;;;5026085;28;20535;-55
2021/08/28 12:39:08;;;;;;;3.90;3.50;;;17.70;99.90;;;;;;5024717;28;20463;-54
2021/08/28 12:41:35;;;;;;;4.20;3.90;;;17.50;99.90;;;;;;5019881;28;20446;-56
2021/08/28 12:44:01;;;;;;;4.40;4.00;;;17.30;99.90;;;;;;5020146;28;20508;-52